Time;durP1;ratioP1;P1;durP2;ratioP2;P2;SDS_P1;SDS_P2;PMS_P1;PMS_P2;Temp;Humidity;BMP_temperature;BMP_pressure;BME280_temperature;BME280_humidity;BME280_pressure;Samples;Min_cycle;Max_cycle;Signal;HPM_P1;HPM_P2
2022/06/17 00:01:47;;;;;;;2.15;1.50;;;;;;;20.76;44.86;101404.34;5140112;27;20027;-52
2022/06/17 00:04:12;;;;;;;1.95;1.50;;;;;;;20.73;44.54;101398.53;5139318;27;20027;-51
2022/06/17 00:06:47;;;;;;;1.13;1.02;;;;;;;20.73;44.97;101402.13;5140363;27;20023;-55
2022/06/17 00:09:17;;;;;;;2.22;1.40;;;;;;;20.76;44.69;101387.16;5139204;27;20039;-55
2022/06/17 00:11:43;;;;;;;2.50;2.00;;;;;;;20.70;44.26;101388.94;5139199;27;20039;-52
2022/06/17 00:14:15;;;;;;;1.63;1.52;;;;;;;20.75;45.01;101391.78;5139990;27;20034;-52
2022/06/17 00:16:41;;;;;;;1.90;1.70;;;;;;;20.75;44.48;101401.88;5140334;27;20035;-54
2022/06/17 00:19:07;;;;;;;3.33;1.50;;;;;;;20.70;45.39;101397.13;5138982;27;20080;-54
2022/06/17 00:21:36;;;;;;;4.15;1.92;;;;;;;20.68;44.66;101402.81;5140597;27;20039;-53
2022/06/17 00:24:14;;;;;;;8.77;2.17;;;;;;;20.74;44.90;101397.47;5138565;27;20034;-56
2022/06/17 00:26:39;;;;;;;2.28;1.67;;;;;;;20.73;44.64;101402.13;5140503;27;20027;-53
2022/06/17 00:29:07;;;;;;;2.35;1.35;;;;;;;20.68;44.76;101397.34;5137613;27;20027;-54
2022/06/17 00:31:33;;;;;;;4.32;1.90;;;;;;;20.63;45.29;101385.50;5138758;27;20031;-55
2022/06/17 00:33:59;;;;;;;3.63;2.42;;;;;;;20.56;45.41;101388.31;5138828;27;20168;-52
2022/06/17 00:36:25;;;;;;;3.67;2.22;;;;;;;20.50;45.66;101391.97;5138733;27;20042;-56
2022/06/17 00:38:52;;;;;;;6.35;1.77;;;;;;;20.46;45.68;101390.81;5138965;27;20046;-54
2022/06/17 00:41:26;;;;;;;3.00;1.90;;;;;;;20.42;45.78;101390.44;5138769;27;20023;-55
2022/06/17 00:43:52;;;;;;;3.47;2.50;;;;;;;20.43;45.92;101392.13;5139276;27;20091;-51
2022/06/17 00:46:33;;;;;;;2.10;1.90;;;;;;;20.31;46.12;101362.09;5139534;27;20080;-54
2022/06/17 00:49:37;;;;;;;5.43;2.13;;;;;;;20.46;47.16;101385.34;5139655;27;20090;-59
2022/06/17 00:52:08;;;;;;;5.13;2.25;;;;;;;20.40;45.88;101391.75;5124704;27;20026;-53
2022/06/17 00:54:42;;;;;;;3.78;2.13;;;;;;;20.30;46.26;101385.00;5141099;27;20035;-55
2022/06/17 00:57:32;;;;;;;6.43;1.90;;;;;;;20.28;47.30;101389.00;5140587;27;20028;-56
2022/06/17 01:00:19;;;;;;;2.88;2.40;;;;;;;20.20;46.82;101383.91;5137513;27;20031;-55
2022/06/17 01:02:49;;;;;;;3.08;2.55;;;;;;;20.14;46.51;101388.41;5137740;27;20038;-55
2022/06/17 01:05:18;;;;;;;2.72;1.90;;;;;;;20.08;46.97;101381.16;5136807;27;20084;-56
2022/06/17 01:07:51;;;;;;;3.95;1.95;;;;;;;20.08;47.33;101390.19;5140794;27;20031;-56
2022/06/17 01:10:19;;;;;;;2.83;1.95;;;;;;;20.06;46.97;101378.69;5137673;27;20106;-54
2022/06/17 01:12:54;;;;;;;2.40;2.17;;;;;;;20.03;47.36;101372.84;5137326;27;20054;-51
2022/06/17 01:15:22;;;;;;;2.25;1.52;;;;;;;20.03;47.29;101364.69;5137610;27;20028;-55
2022/06/17 01:17:49;;;;;;;1.83;1.65;;;;;;;20.12;46.96;101368.72;5137525;27;20159;-54
2022/06/17 01:20:17;;;;;;;3.15;2.00;;;;;;;20.07;47.17;101363.13;5137222;27;20126;-55
2022/06/17 01:22:46;;;;;;;3.20;1.92;;;;;;;20.11;46.88;101378.81;5137565;27;20027;-55
2022/06/17 01:25:19;;;;;;;7.40;2.17;;;;;;;20.07;47.25;101374.03;5135631;27;20024;-56
2022/06/17 01:27:49;;;;;;;3.42;2.08;;;;;;;20.04;47.34;101371.78;5137244;27;20382;-55
2022/06/17 01:30:19;;;;;;;4.45;2.60;;;;;;;19.88;47.97;101367.84;5137487;27;20037;-54
2022/06/17 01:32:55;;;;;;;2.10;1.80;;;;;;;19.96;47.21;101372.13;5136959;27;20110;-52
2022/06/17 01:35:26;;;;;;;4.28;2.00;;;;;;;19.89;47.38;101359.44;5135555;27;20023;-54
2022/06/17 01:37:52;;;;;;;5.82;2.53;;;;;;;19.92;47.42;101350.78;5136540;27;20475;-54
2022/06/17 01:40:18;;;;;;;3.35;1.95;;;;;;;19.96;47.15;101358.50;5136634;27;20025;-53
2022/06/17 01:42:45;;;;;;;2.95;2.33;;;;;;;19.91;46.97;101349.13;5136536;27;20046;-55
2022/06/17 01:45:11;;;;;;;3.60;2.05;;;;;;;19.94;47.28;101338.81;5118242;27;20025;-56
2022/06/17 01:47:41;;;;;;;3.75;2.00;;;;;;;19.82;47.94;101342.34;5136516;27;20049;-55
2022/06/17 01:50:12;;;;;;;2.75;2.03;;;;;;;19.83;47.63;101344.00;5136489;27;20388;-56
2022/06/17 01:52:47;;;;;;;2.08;1.77;;;;;;;19.75;47.61;101325.28;5117970;27;20031;-51
2022/06/17 01:55:20;;;;;;;2.28;2.08;;;;;;;19.80;47.70;101339.03;5136284;27;20221;-52
2022/06/17 01:58:01;;;;;;;5.60;2.42;;;;;;;19.48;48.14;101301.13;5136381;27;20027;-53
2022/06/17 02:00:29;;;;;;;6.10;2.22;;;;;;;19.62;48.64;101334.44;5136093;27;20058;-54
2022/06/17 02:03:03;;;;;;;2.90;1.90;;;;;;;19.41;48.73;101324.91;5135789;27;20057;-55
2022/06/17 02:05:33;;;;;;;3.38;2.67;;;;;;;19.36;49.58;101334.84;5136372;27;20038;-52
2022/06/17 02:08:01;;;;;;;4.40;2.13;;;;;;;19.33;49.28;101322.50;5135967;27;20383;-52
2022/06/17 02:10:31;;;;;;;4.25;2.10;;;;;;;19.39;49.15;101326.19;5134906;27;20027;-51
2022/06/17 02:13:00;;;;;;;4.53;2.20;;;;;;;19.29;49.67;101330.28;5135785;27;20514;-56
2022/06/17 02:15:26;;;;;;;4.72;2.13;;;;;;;19.26;49.88;101330.78;5133907;27;20122;-54
2022/06/17 02:17:54;;;;;;;4.95;2.28;;;;;;;19.25;49.63;101323.66;5135526;27;20036;-55
2022/06/17 02:20:21;;;;;;;3.90;2.10;;;;;;;19.14;49.61;101318.97;5136352;27;20030;-53
2022/06/17 02:22:47;;;;;;;5.07;2.42;;;;;;;19.14;49.67;101338.88;5134184;27;20031;-55
2022/06/17 02:25:17;;;;;;;2.85;2.00;;;;;;;19.14;49.84;101318.97;5135852;27;20035;-51
2022/06/17 02:27:46;;;;;;;2.55;2.35;;;;;;;19.04;50.21;101318.72;5136334;27;20031;-52
2022/06/17 02:30:12;;;;;;;4.60;2.33;;;;;;;19.01;50.27;101313.72;5136036;27;20035;-52
2022/06/17 02:32:40;;;;;;;5.75;2.30;;;;;;;19.01;49.63;101317.25;5136018;27;20023;-54
2022/06/17 02:35:22;;;;;;;2.97;2.22;;;;;;;19.01;51.44;101313.72;5100477;27;20420;-53
2022/06/17 02:37:48;;;;;;;5.00;2.88;;;;;;;18.91;50.31;101314.25;5135972;27;20023;-54
2022/06/17 02:40:32;;;;;;;4.22;2.70;;;;;;;18.89;50.52;101297.34;5135655;27;20033;-53
2022/06/17 02:43:01;;;;;;;4.05;2.65;;;;;;;18.93;49.95;101290.38;5134197;27;20034;-52
2022/06/17 02:45:30;;;;;;;4.68;2.70;;;;;;;18.91;50.14;101297.94;5134008;27;20302;-53
2022/06/17 02:47:56;;;;;;;4.93;3.00;;;;;;;18.85;51.48;101291.50;5135284;27;20467;-57
2022/06/17 02:50:26;;;;;;;4.60;2.95;;;;;;;18.84;50.66;101284.41;5134593;27;20042;-55
2022/06/17 02:52:54;;;;;;;8.25;2.90;;;;;;;18.83;51.13;101284.63;5135050;27;20432;-55
2022/06/17 02:55:26;;;;;;;6.28;3.38;;;;;;;18.79;51.25;101281.50;5134062;27;20474;-53
2022/06/17 02:58:00;;;;;;;6.43;2.90;;;;;;;18.68;51.63;101283.06;5135656;27;20478;-53
2022/06/17 03:00:26;;;;;;;5.70;3.07;;;;;;;18.62;51.89;101292.16;5135329;27;20030;-55
2022/06/17 03:02:56;;;;;;;3.83;2.65;;;;;;;18.52;52.59;101291.88;5135486;27;20031;-53
2022/06/17 03:05:27;;;;;;;9.65;3.55;;;;;;;18.44;52.79;101300.31;5135339;27;20363;-54
2022/06/17 03:07:55;;;;;;;6.68;3.03;;;;;;;18.31;53.04;101309.44;5134828;27;20112;-54
2022/06/17 03:10:34;;;;;;;4.88;3.03;;;;;;;18.32;53.62;101311.94;5134891;27;20026;-52
2022/06/17 03:13:23;;;;;;;5.93;3.53;;;;;;;18.34;52.61;101307.09;5135061;27;20027;-54
2022/06/17 03:15:52;;;;;;;6.38;3.40;;;;;;;18.20;52.67;101283.81;5133886;28;20036;-54
2022/06/17 03:18:20;;;;;;;3.17;2.67;;;;;;;18.26;52.70;101306.56;5134839;27;20038;-52
2022/06/17 03:20:47;;;;;;;7.38;3.20;;;;;;;18.18;53.17;101310.38;5115966;28;20363;-51
2022/06/17 03:23:19;;;;;;;6.68;3.35;;;;;;;18.17;53.18;101297.88;5133304;28;20042;-54
2022/06/17 03:25:52;;;;;;;4.00;2.85;;;;;;;18.12;52.92;101295.81;5134945;27;20023;-54
2022/06/17 03:28:25;;;;;;;5.63;3.00;;;;;;;18.06;53.38;101293.16;5136962;27;20113;-53
2022/06/17 03:31:02;;;;;;;4.38;3.47;;;;;;;18.04;54.48;101304.25;5138745;27;20035;-51
2022/06/17 03:33:34;;;;;;;3.90;3.28;;;;;;;17.93;54.59;101313.13;5121123;27;20111;-53
2022/06/17 03:36:08;;;;;;;4.60;3.30;;;;;;;17.92;54.16;101301.44;5138900;27;20027;-52
2022/06/17 03:38:45;;;;;;;3.83;3.30;;;;;;;17.77;54.47;101292.72;5139126;27;20401;-53
2022/06/17 03:41:50;;;;;;;6.28;3.42;;;;;;;17.92;55.03;101306.88;5137662;27;20123;-53
2022/06/17 03:44:21;;;;;;;7.75;3.28;;;;;;;17.85;53.53;101283.50;5125997;27;20034;-54
2022/06/17 03:46:55;;;;;;;5.28;2.90;;;;;;;17.87;53.38;101284.13;5138415;27;20030;-50
2022/06/17 03:49:34;;;;;;;3.75;3.03;;;;;;;17.92;53.82;101289.72;5138287;27;20038;-54
2022/06/17 03:52:06;;;;;;;4.88;2.95;;;;;;;17.78;53.80;101270.78;5138484;27;20031;-55
2022/06/17 03:54:32;;;;;;;5.75;2.90;;;;;;;17.83;53.23;101272.84;5137250;27;20023;-55
2022/06/17 03:56:58;;;;;;;3.60;3.10;;;;;;;17.82;53.85;101273.06;5138514;27;20581;-51
2022/06/17 03:59:30;;;;;;;5.63;3.25;;;;;;;17.79;54.20;101266.16;5136714;27;20023;-55
2022/06/17 04:02:02;;;;;;;3.85;2.90;;;;;;;17.77;53.41;101266.41;5137692;27;20023;-53
2022/06/17 04:04:32;;;;;;;6.45;2.80;;;;;;;17.76;53.86;101264.75;5137985;27;20023;-54
2022/06/17 04:06:58;;;;;;;9.20;2.90;;;;;;;17.68;54.32;101269.59;5137135;27;20546;-51
2022/06/17 04:09:27;;;;;;;3.78;3.10;;;;;;;17.69;53.79;101272.09;5137779;27;20073;-52
2022/06/17 04:12:00;;;;;;;6.68;3.08;;;;;;;17.68;54.16;101280.47;5136412;27;20031;-53
2022/06/17 04:15:06;;;;;;;6.45;3.28;;;;;;;17.75;54.33;101283.97;5137713;27;20106;-52
2022/06/17 04:17:42;;;;;;;5.50;3.10;;;;;;;17.67;53.99;101271.50;5125161;27;20035;-54
2022/06/17 04:20:31;;;;;;;5.03;3.00;;;;;;;17.79;53.52;101283.31;5138029;27;20026;-55
2022/06/17 04:23:03;;;;;;;6.65;3.25;;;;;;;17.74;54.00;101269.56;5137142;27;20031;-54
2022/06/17 04:25:52;;;;;;;6.93;3.22;;;;;;;17.80;53.28;101265.13;5136739;27;20053;-52
2022/06/17 04:28:22;;;;;;;7.30;3.22;;;;;;;17.78;54.30;101269.97;5138094;27;20028;-51
2022/06/17 04:30:53;;;;;;;7.72;3.30;;;;;;;17.70;54.17;101279.22;5139264;27;20027;-53
2022/06/17 04:33:30;;;;;;;4.38;3.10;;;;;;;17.69;54.81;101279.44;5139215;27;20035;-53
2022/06/17 04:36:02;;;;;;;6.35;2.97;;;;;;;17.69;53.71;101257.69;5121421;27;20095;-55
2022/06/17 04:38:34;;;;;;;5.82;3.35;;;;;;;17.84;53.33;101269.06;5137720;27;20075;-54
2022/06/17 04:41:02;;;;;;;3.10;2.80;;;;;;;17.79;53.68;101271.59;5138662;27;20031;-53
2022/06/17 04:43:44;;;;;;;7.88;3.13;;;;;;;17.79;54.80;101275.16;5138114;27;20027;-51
2022/06/17 04:46:17;;;;;;;5.70;2.95;;;;;;;17.81;53.38;101266.78;5119917;27;20030;-53
2022/06/17 04:48:43;;;;;;;4.80;2.78;;;;;;;17.91;53.71;101279.91;5137596;27;20031;-51
2022/06/17 04:51:10;;;;;;;5.90;3.20;;;;;;;17.74;54.55;101266.03;5137299;27;20027;-54
2022/06/17 04:53:42;;;;;;;4.97;3.08;;;;;;;17.78;53.72;101278.94;5136172;27;20034;-54
2022/06/17 04:56:16;;;;;;;8.52;3.53;;;;;;;17.79;53.98;101277.88;5137729;27;20019;-54
2022/06/17 04:58:41;;;;;;;8.43;3.20;;;;;;;17.69;54.22;101263.13;5137408;27;20031;-52
2022/06/17 05:01:16;;;;;;;5.53;3.38;;;;;;;17.73;54.49;101281.47;5137435;27;20042;-55
2022/06/17 05:03:42;;;;;;;5.57;3.40;;;;;;;17.64;54.89;101276.53;5137236;27;20027;-53
2022/06/17 05:06:09;;;;;;;4.07;2.92;;;;;;;17.65;55.11;101286.38;5136327;27;20027;-52
2022/06/17 05:08:38;;;;;;;3.55;3.03;;;;;;;17.68;54.13;101285.91;5137165;27;20047;-52
2022/06/17 05:11:16;;;;;;;4.57;3.05;;;;;;;17.65;55.24;101273.59;5136564;27;20039;-50
2022/06/17 05:13:52;;;;;;;5.25;3.10;;;;;;;17.65;55.45;101275.50;5138563;27;20027;-53
2022/06/17 05:16:17;;;;;;;5.50;3.00;;;;;;;17.64;54.27;101271.09;5137962;27;20027;-54
2022/06/17 05:18:43;;;;;;;3.20;2.50;;;;;;;17.64;53.96;101268.38;5136553;27;20110;-54
2022/06/17 05:21:21;;;;;;;7.28;3.17;;;;;;;17.70;55.58;101271.06;5137097;27;20019;-54
2022/06/17 05:23:50;;;;;;;5.00;3.13;;;;;;;17.69;54.17;101265.84;5136574;27;20031;-55
2022/06/17 05:26:16;;;;;;;3.95;2.45;;;;;;;17.76;53.60;101269.34;5137148;27;20455;-52
2022/06/17 05:28:42;;;;;;;7.75;3.28;;;;;;;17.82;53.88;101284.75;5136640;27;20039;-50
2022/06/17 05:31:13;;;;;;;6.97;3.08;;;;;;;17.79;54.27;101277.88;5118132;27;20034;-54
2022/06/17 05:33:40;;;;;;;7.03;3.45;;;;;;;17.89;53.55;101284.75;5118487;27;20035;-51
2022/06/17 05:36:06;;;;;;;5.63;3.03;;;;;;;17.86;53.24;101286.00;5136863;27;20027;-52
2022/06/17 05:38:32;;;;;;;4.68;3.05;;;;;;;17.87;53.76;101295.84;5136483;27;20027;-53
2022/06/17 05:40:58;;;;;;;6.90;3.20;;;;;;;17.83;54.00;101296.44;5136850;27;20465;-50
2022/06/17 05:43:23;;;;;;;3.85;2.78;;;;;;;17.86;53.89;101290.59;5136441;27;20027;-52
2022/06/17 05:45:49;;;;;;;5.80;3.20;;;;;;;17.82;53.69;101283.94;5136830;27;20031;-53
2022/06/17 05:48:15;;;;;;;5.82;3.25;;;;;;;17.89;53.99;101279.31;5136020;27;20163;-55
2022/06/17 05:50:41;;;;;;;4.55;3.03;;;;;;;17.93;54.19;101299.53;5136374;27;20042;-52
2022/06/17 05:53:11;;;;;;;5.68;3.13;;;;;;;17.58;54.05;101249.19;5135750;27;20019;-51
2022/06/17 05:55:37;;;;;;;6.32;3.55;;;;;;;17.92;54.06;101306.88;5137483;27;20110;-52
2022/06/17 05:58:04;;;;;;;7.18;2.80;;;;;;;18.02;53.50;101313.69;5138273;27;20065;-55
2022/06/17 06:00:31;;;;;;;9.65;2.90;;;;;;;18.06;53.33;101320.34;5136019;27;20036;-53
2022/06/17 06:03:00;;;;;;;6.20;2.67;;;;;;;18.09;53.66;101328.88;5135986;27;20034;-50
2022/06/17 06:05:28;;;;;;;3.97;2.70;;;;;;;18.14;53.40;101320.06;5134498;27;20367;-51
2022/06/17 06:07:54;;;;;;;3.55;2.67;;;;;;;18.26;52.76;101342.75;5117821;27;20050;-54
2022/06/17 06:10:21;;;;;;;4.80;3.00;;;;;;;18.30;52.12;101332.25;5136091;27;20027;-55
2022/06/17 06:12:57;;;;;;;4.85;2.45;;;;;;;18.39;52.30;101333.63;5135758;27;20050;-52
2022/06/17 06:15:26;;;;;;;3.45;2.50;;;;;;;18.35;51.77;101316.09;5135818;27;20034;-52
2022/06/17 06:17:52;;;;;;;4.35;2.50;;;;;;;18.53;51.72;101334.31;5135764;27;20031;-53
2022/06/17 06:20:18;;;;;;;5.20;2.45;;;;;;;18.57;51.62;101341.81;5133954;27;20120;-55
2022/06/17 06:22:44;;;;;;;5.22;2.42;;;;;;;18.62;51.17;101326.69;5135800;27;20074;-51
2022/06/17 06:25:12;;;;;;;2.95;2.40;;;;;;;18.61;51.04;101325.03;5135780;27;20038;-56
2022/06/17 06:27:37;;;;;;;4.70;2.65;;;;;;;18.75;50.79;101348.31;5135223;27;20467;-55
2022/06/17 06:30:04;;;;;;;4.85;2.13;;;;;;;18.77;50.70;101341.59;5135488;27;20046;-54
2022/06/17 06:32:29;;;;;;;2.65;2.25;;;;;;;18.81;50.11;101330.28;5133594;27;20031;-54
2022/06/17 06:34:55;;;;;;;4.45;2.53;;;;;;;18.86;49.75;101330.44;5116850;27;20030;-52
2022/06/17 06:37:21;;;;;;;4.10;2.15;;;;;;;18.99;49.67;101335.72;5135206;27;20031;-54
2022/06/17 06:39:47;;;;;;;2.85;1.95;;;;;;;19.07;49.34;101338.13;5134394;27;20019;-54
2022/06/17 06:42:13;;;;;;;2.60;1.98;;;;;;;19.08;49.15;101325.34;5135449;27;20084;-53
2022/06/17 06:44:38;;;;;;;3.83;1.75;;;;;;;19.17;48.96;101326.69;5133610;27;20054;-54
2022/06/17 06:47:05;;;;;;;4.22;2.10;;;;;;;19.23;49.00;101317.59;5134909;27;20023;-54
2022/06/17 06:49:31;;;;;;;3.65;1.80;;;;;;;19.36;48.90;101322.03;5135142;27;20027;-54
2022/06/17 06:51:56;;;;;;;5.75;1.80;;;;;;;19.39;48.60;101305.25;5135541;27;20515;-50
2022/06/17 06:54:22;;;;;;;5.22;1.95;;;;;;;19.53;48.50;101317.59;5134013;27;20019;-53
2022/06/17 06:56:48;;;;;;;4.38;1.98;;;;;;;19.49;48.08;101302.78;5135419;27;20101;-56
2022/06/17 06:59:15;;;;;;;6.13;1.98;;;;;;;19.64;48.26;101315.97;5133748;27;20065;-54
2022/06/17 07:01:41;;;;;;;5.30;1.88;;;;;;;19.66;48.29;101285.75;5135010;27;20027;-54
2022/06/17 07:04:06;;;;;;;4.70;2.13;;;;;;;19.79;47.62;101287.47;5135161;27;20038;-51
2022/06/17 07:06:35;;;;;;;3.65;2.00;;;;;;;19.86;46.94;101286.28;5135207;27;20066;-55
2022/06/17 07:09:02;;;;;;;3.35;1.48;;;;;;;19.85;46.82;101279.16;5134915;27;20043;-54
2022/06/17 07:11:27;;;;;;;3.03;1.90;;;;;;;20.01;47.20;101288.56;5116150;27;20031;-54
2022/06/17 07:13:53;;;;;;;4.40;2.05;;;;;;;19.95;47.00;101264.13;5133601;27;20045;-54
2022/06/17 07:16:19;;;;;;;3.70;2.15;;;;;;;20.16;46.90;101271.72;5135496;27;20023;-55
2022/06/17 07:18:45;;;;;;;3.50;2.30;;;;;;;20.35;47.22;101280.59;5134673;27;20429;-55
2022/06/17 07:21:13;;;;;;;2.75;1.70;;;;;;;20.48;46.74;101268.59;5134708;27;20035;-53
2022/06/17 07:23:42;;;;;;;3.03;2.08;;;;;;;20.60;46.02;101269.44;5134336;27;20027;-55
2022/06/17 07:26:16;;;;;;;3.70;2.00;;;;;;;20.68;45.52;101260.88;5133253;28;20027;-53
2022/06/17 07:28:42;;;;;;;6.43;2.17;;;;;;;20.80;46.03;101257.28;5115827;28;20168;-50
2022/06/17 07:31:08;;;;;;;4.80;2.40;;;;;;;20.95;45.16;101256.75;5134430;27;20023;-53
2022/06/17 07:33:34;;;;;;;3.75;2.03;;;;;;;21.06;44.79;101256.72;5134833;27;20110;-53
2022/06/17 07:36:01;;;;;;;3.15;2.35;;;;;;;21.11;44.58;101258.69;5134884;28;20157;-51
2022/06/17 07:41:22;;;;;;;3.17;1.90;;;;;;;21.31;43.86;101255.53;5119109;28;20019;-54
2022/06/17 07:43:48;;;;;;;4.45;2.08;;;;;;;21.39;43.73;101243.34;5117308;28;20455;-54
2022/06/17 07:46:14;;;;;;;7.72;2.33;;;;;;;21.34;43.41;101241.38;5133385;28;20062;-55
2022/06/17 07:48:40;;;;;;;3.45;2.08;;;;;;;21.42;43.37;101238.22;5134917;27;20032;-54
2022/06/17 07:51:07;;;;;;;3.72;2.05;;;;;;;21.53;42.72;101239.25;5135358;28;20070;-53
2022/06/17 07:53:35;;;;;;;5.45;2.25;;;;;;;21.62;42.75;101226.03;5134653;27;20031;-55
2022/06/17 07:56:02;;;;;;;8.25;2.28;;;;;;;21.70;42.49;101228.31;5134049;27;20027;-56
2022/06/17 07:58:29;;;;;;;4.78;2.00;;;;;;;21.85;43.08;101219.53;5133319;28;20110;-51
2022/06/17 08:00:55;;;;;;;3.65;1.85;;;;;;;21.88;42.36;101218.19;5133241;28;20092;-55
2022/06/17 08:03:21;;;;;;;2.95;1.95;;;;;;;21.84;41.77;101209.66;5133345;28;20462;-55
2022/06/17 08:05:52;;;;;;;4.20;2.38;;;;;;;21.90;41.40;101210.56;5133665;28;20031;-54
2022/06/17 08:08:22;;;;;;;2.55;2.03;;;;;;;21.97;41.79;101211.22;5132734;28;20051;-54
2022/06/17 08:10:50;;;;;;;2.67;1.90;;;;;;;22.21;41.53;101206.34;5134093;27;20031;-51
2022/06/17 08:13:19;;;;;;;4.32;2.03;;;;;;;22.48;39.92;101200.97;5135355;27;20062;-54
2022/06/17 08:15:46;;;;;;;4.72;1.92;;;;;;;22.64;40.03;101173.78;5138701;27;20114;-57
2022/06/17 08:18:15;;;;;;;8.55;2.03;;;;;;;23.38;37.93;101175.88;5144694;27;20045;-55
2022/06/17 08:20:41;;;;;;;6.82;2.25;;;;;;;24.05;34.96;101168.97;5140308;27;20019;-53
2022/06/17 08:23:08;;;;;;;6.95;1.63;;;;;;;24.70;34.88;101166.75;5120075;27;20039;-55
2022/06/17 08:25:35;;;;;;;6.78;1.70;;;;;;;25.14;34.19;101153.59;5136861;27;20039;-54
2022/06/17 08:28:04;;;;;;;2.03;1.63;;;;;;;25.82;32.84;101172.53;5137548;27;20126;-54
2022/06/17 08:30:34;;;;;;;2.40;1.60;;;;;;;26.25;32.48;101167.47;5137103;27;20054;-53
2022/06/17 08:32:59;;;;;;;2.63;1.70;;;;;;;26.72;33.21;101157.88;5137089;27;20043;-53
2022/06/17 08:35:32;;;;;;;2.03;1.30;;;;;;;27.39;32.47;101160.16;5135300;27;20040;-54
2022/06/17 08:38:13;;;;;;;2.28;1.50;;;;;;;27.78;29.98;101142.63;5135614;27;20027;-55
2022/06/17 08:40:54;;;;;;;5.72;1.58;;;;;;;28.09;29.10;101134.84;5135399;27;20071;-50
2022/06/17 08:43:54;;;;;;;2.80;1.50;;;;;;;28.34;27.90;101152.19;5135420;27;20110;-49
2022/06/17 08:47:00;;;;;;;2.22;1.55;;;;;;;28.32;26.91;101155.25;5120591;27;20027;-51
2022/06/17 08:49:45;;;;;;;3.05;1.77;;;;;;;28.63;27.81;101160.41;5109452;27;20125;-49
2022/06/17 08:52:38;;;;;;;1.95;1.30;;;;;;;28.66;26.67;101167.25;5134850;27;20056;-49
2022/06/17 08:55:43;;;;;;;7.53;1.50;;;;;;;29.18;26.96;101170.09;5120873;27;20126;-49
2022/06/17 08:58:36;;;;;;;3.72;1.20;;;;;;;29.11;26.09;101171.28;5123905;27;20348;-50
2022/06/17 09:01:13;;;;;;;3.65;1.20;;;;;;;29.63;27.76;101173.19;5135468;27;20034;-52
2022/06/17 09:04:09;;;;;;;3.63;1.52;;;;;;;30.25;26.24;101167.28;5136605;27;20467;-50
2022/06/17 09:06:50;;;;;;;3.08;1.63;;;;;;;30.05;26.11;101151.91;5135562;27;20049;-53
2022/06/17 09:09:55;;;;;;;2.15;1.48;;;;;;;30.38;25.68;101151.78;5135794;27;20055;-55
2022/06/17 09:12:57;;;;;;;4.43;1.40;;;;;;;30.86;25.82;101149.28;5109580;27;20031;-54
2022/06/17 09:15:37;;;;;;;1.83;1.58;;;;;;;30.60;25.39;101156.56;5135554;27;20027;-53
2022/06/17 09:18:28;;;;;;;3.25;1.45;;;;;;;30.91;25.72;101142.84;5136263;27;20496;-54
2022/06/17 09:21:21;;;;;;;2.95;1.38;;;;;;;31.29;24.87;101150.75;5135525;27;20115;-54
2022/06/17 09:23:49;;;;;;;2.03;1.20;;;;;;;31.72;26.08;101143.81;5134834;27;20023;-51
2022/06/17 09:26:22;;;;;;;4.95;1.52;;;;;;;31.71;24.32;101122.75;5134092;27;20080;-54
2022/06/17 09:28:57;;;;;;;3.72;1.67;;;;;;;32.24;24.01;101135.63;5134637;27;20470;-55
2022/06/17 09:31:45;;;;;;;2.60;1.40;;;;;;;32.12;23.41;101141.84;5136228;27;20024;-50
2022/06/17 09:34:18;;;;;;;5.68;1.67;;;;;;;32.30;24.12;101139.94;5136386;27;20035;-52
2022/06/17 09:36:51;;;;;;;2.47;1.88;;;;;;;32.70;23.99;101127.88;5136348;27;20475;-53
2022/06/17 09:39:34;;;;;;;3.90;1.50;;;;;;;32.97;24.05;101137.84;5136148;27;20106;-54
2022/06/17 09:42:06;;;;;;;3.47;1.27;;;;;;;32.49;23.38;101131.28;5136137;27;20409;-53
2022/06/17 09:44:43;;;;;;;5.47;1.45;;;;;;;31.52;24.27;101134.91;5136257;27;20065;-53
2022/06/17 09:47:32;;;;;;;1.88;1.40;;;;;;;31.63;23.75;101135.44;5135578;27;20033;-54
2022/06/17 09:50:05;;;;;;;2.88;1.35;;;;;;;32.44;23.71;101123.09;5116619;27;20027;-55
2022/06/17 09:52:35;;;;;;;5.63;1.30;;;;;;;32.94;22.55;101133.72;5135489;27;20042;-55
2022/06/17 09:55:19;;;;;;;4.88;1.40;;;;;;;33.20;22.02;101113.41;5135600;27;20039;-52
2022/06/17 09:58:07;;;;;;;2.95;1.40;;;;;;;33.33;21.37;101125.50;5135017;27;20046;-53
2022/06/17 10:00:40;;;;;;;13.43;1.70;;;;;;;33.50;21.83;101119.03;5134790;27;20034;-53
2022/06/17 10:03:22;;;;;;;3.78;1.42;;;;;;;33.66;21.61;101125.72;5135097;27;20034;-51
2022/06/17 10:06:12;;;;;;;5.22;1.30;;;;;;;33.86;20.48;101121.38;5136397;27;20038;-52
2022/06/17 10:09:12;;;;;;;4.47;1.23;;;;;;;34.05;20.47;101128.47;5134722;27;20047;-53
2022/06/17 10:12:18;;;;;;;3.00;1.40;;;;;;;34.46;21.18;101126.91;5134424;27;20042;-54
2022/06/17 10:15:08;;;;;;;2.45;1.45;;;;;;;34.50;19.99;101122.28;5108684;27;20506;-54
2022/06/17 10:21:26;;;;;;;4.78;1.63;;;;;;;34.49;20.04;101124.25;5114592;27;20459;-49
2022/06/17 10:24:05;;;;;;;5.65;2.10;;;;;;;35.00;20.82;101114.97;5133925;27;20027;-52
2022/06/17 10:26:53;;;;;;;2.88;1.40;;;;;;;35.46;19.34;101116.59;5134938;27;20023;-53
2022/06/17 10:29:35;;;;;;;5.70;1.38;;;;;;;35.70;19.09;101111.38;5135012;27;20067;-54
2022/06/17 10:32:04;;;;;;;3.63;1.45;;;;;;;35.72;19.18;101114.63;5135136;27;20154;-55
2022/06/17 10:34:40;;;;;;;4.15;1.70;;;;;;;35.73;20.48;101116.28;5134779;27;20408;-54
2022/06/17 10:37:06;;;;;;;3.50;1.48;;;;;;;35.51;19.51;101092.38;5134436;27;20023;-49
2022/06/17 10:39:35;;;;;;;6.60;1.73;;;;;;;34.79;19.76;101068.38;5134805;27;20076;-52
2022/06/17 10:42:02;;;;;;;8.60;1.50;;;;;;;35.17;20.79;101075.66;5134883;27;20136;-52
2022/06/17 10:44:30;;;;;;;5.22;1.88;;;;;;;35.56;19.86;101089.34;5133643;27;20389;-55
2022/06/17 10:47:21;;;;;;;4.88;1.50;;;;;;;35.72;20.66;101078.31;5116226;27;20034;-50
2022/06/17 10:49:53;;;;;;;5.88;1.95;;;;;;;35.67;20.77;101090.53;5119101;27;20027;-53
2022/06/17 10:52:26;;;;;;;1.88;1.73;;;;;;;36.23;21.10;101082.34;5134389;27;20062;-50
2022/06/17 10:54:54;;;;;;;3.13;1.67;;;;;;;36.07;19.99;101069.41;5134403;27;20103;-53
2022/06/17 10:57:30;;;;;;;2.38;1.50;;;;;;;36.16;21.06;101082.13;5134284;27;20034;-53
2022/06/17 10:59:56;;;;;;;3.25;1.70;;;;;;;36.50;21.02;101082.72;5133079;27;20032;-53
2022/06/17 11:02:30;;;;;;;3.20;1.85;;;;;;;36.92;19.60;101073.09;5134704;27;20038;-51
2022/06/17 11:05:03;;;;;;;7.40;1.90;;;;;;;37.24;19.56;101085.19;5134453;27;20100;-51
2022/06/17 11:07:35;;;;;;;3.10;1.75;;;;;;;37.31;19.34;101084.53;5134612;27;20399;-50
2022/06/17 11:10:06;;;;;;;6.22;1.92;;;;;;;37.36;19.67;101076.69;5134342;27;20042;-49
2022/06/17 11:12:37;;;;;;;7.85;1.92;;;;;;;37.21;19.34;101087.91;5134413;27;20111;-49
2022/06/17 11:15:18;;;;;;;5.80;1.67;;;;;;;37.43;19.31;101087.25;5133083;27;20479;-51
2022/06/17 11:17:48;;;;;;;8.65;2.15;;;;;;;37.04;19.47;101077.78;5132838;27;20479;-53
2022/06/17 11:20:24;;;;;;;7.90;1.90;;;;;;;37.36;20.34;101073.06;5132840;28;20031;-50
2022/06/17 11:22:58;;;;;;;4.03;1.90;;;;;;;38.01;18.86;101069.81;5133964;27;20534;-53
2022/06/17 11:25:36;;;;;;;7.43;1.73;;;;;;;37.99;19.29;101062.97;5134507;27;20044;-54
2022/06/17 11:28:23;;;;;;;7.03;1.70;;;;;;;38.21;18.88;101075.50;5134440;27;20390;-50
2022/06/17 11:31:00;;;;;;;5.07;1.92;;;;;;;38.24;18.79;101071.94;5133550;27;20027;-50
2022/06/17 11:33:30;;;;;;;7.72;1.98;;;;;;;37.86;19.04;101065.06;5134028;27;20027;-49
2022/06/17 11:36:01;;;;;;;4.03;1.70;;;;;;;38.25;19.08;101065.94;5134132;27;20031;-49
2022/06/17 11:38:29;;;;;;;9.10;1.90;;;;;;;38.11;18.62;101043.19;5133371;28;20088;-48
2022/06/17 11:40:56;;;;;;;3.40;1.67;;;;;;;38.26;19.30;101063.94;5134990;27;20031;-47
2022/06/17 11:43:41;;;;;;;4.88;1.95;;;;;;;38.15;19.03;101060.91;5132866;28;20471;-49
2022/06/17 11:46:11;;;;;;;4.95;1.80;;;;;;;37.93;18.99;101063.25;5133761;27;20031;-53
2022/06/17 11:48:40;;;;;;;5.13;2.10;;;;;;;38.13;19.77;101055.69;5135392;27;20027;-52
2022/06/17 11:51:17;;;;;;;3.83;1.90;;;;;;;38.20;19.08;101043.00;5137745;27;20051;-48
2022/06/17 11:53:51;;;;;;;5.20;1.80;;;;;;;38.39;19.40;101050.59;5137679;27;20038;-52
2022/06/17 11:56:39;;;;;;;7.15;2.05;;;;;;;37.95;18.78;101051.66;5138434;27;20091;-51